Time;durP1;ratioP1;P1;durP2;ratioP2;P2;SDS_P1;SDS_P2;PMS_P1;PMS_P2;Temp;Humidity;BMP_temperature;BMP_pressure;BME280_temperature;BME280_humidity;BME280_pressure;Samples;Min_cycle;Max_cycle;Signal;HPM_P1;HPM_P2
2022/09/27 03:00:51;;;;;;;;;;;9.30;99.90;;;;;;6056299;23;20726;-64
2022/09/27 03:03:53;;;;;;;;;;;9.30;99.90;;;;;;4955149;28;19934;-66
2022/09/27 03:06:21;;;;;;;;;;;9.30;99.90;;;;;;4955802;28;19933;-67
2022/09/27 03:08:48;;;;;;;;;;;9.30;99.90;;;;;;4954879;28;20025;-66
2022/09/27 03:11:15;;;;;;;;;;;9.30;99.90;;;;;;4954937;28;19926;-65
2022/09/27 03:13:42;;;;;;;;;;;9.30;99.90;;;;;;4955639;28;19978;-66
2022/09/27 03:16:10;;;;;;;;;;;9.30;99.90;;;;;;4954796;29;20012;-67
2022/09/27 03:19:04;;;;;;;;;;;9.30;99.90;;;;;;4954498;29;19926;-66
2022/09/27 03:21:49;;;;;;;;;;;9.30;99.90;;;;;;4956101;28;19960;-66
2022/09/27 03:24:16;;;;;;;;;;;9.30;99.90;;;;;;4954606;29;19926;-64
2022/09/27 03:26:43;;;;;;;;;;;9.30;99.90;;;;;;4954553;29;20404;-64
2022/09/27 03:29:10;;;;;;;;;;;9.30;99.90;;;;;;4954563;29;19930;-65
2022/09/27 03:31:40;;;;;;;;;;;9.30;99.90;;;;;;4953459;28;19970;-67
2022/09/27 03:34:29;;;;;;;;;;;9.20;99.90;;;;;;4953867;28;20029;-66
2022/09/27 03:36:57;;;;;;;;;;;9.30;99.90;;;;;;4954519;28;19958;-66
2022/09/27 03:39:23;;;;;;;;;;;9.20;99.90;;;;;;4953921;28;19926;-67
2022/09/27 03:41:50;;;;;;;;;;;9.20;99.90;;;;;;4953705;28;20424;-67
2022/09/27 03:44:17;;;;;;;;;;;9.20;99.90;;;;;;4953557;28;20298;-66
2022/09/27 03:46:45;;;;;;;;;;;9.20;99.90;;;;;;4953881;28;19934;-67
2022/09/27 03:49:12;;;;;;;;;;;9.20;99.90;;;;;;4953917;28;19930;-66
2022/09/27 03:51:40;;;;;;;;;;;9.10;99.90;;;;;;4954129;28;19937;-66
2022/09/27 03:54:07;;;;;;;;;;;9.10;99.90;;;;;;4954151;28;20025;-66
2022/09/27 03:56:34;;;;;;;;;;;9.00;99.90;;;;;;4954058;28;19926;-66
2022/09/27 03:59:01;;;;;;;;;;;9.00;99.90;;;;;;4953689;28;19926;-67
2022/09/27 04:01:30;;;;;;;;;;;9.00;99.90;;;;;;4953729;28;19938;-66
2022/09/27 04:04:11;;;;;;;;;;;9.00;99.90;;;;;;4953907;28;19934;-66
2022/09/27 04:06:38;;;;;;;;;;;9.00;99.90;;;;;;4953781;28;19930;-67
2022/09/27 04:09:05;;;;;;;;;;;9.00;99.90;;;;;;4953292;29;20033;-65
2022/09/27 04:11:55;;;;;;;;;;;9.00;99.90;;;;;;4953545;28;19926;-67
2022/09/27 04:14:21;;;;;;;;;;;8.90;99.90;;;;;;4953799;28;19950;-66
2022/09/27 04:17:08;;;;;;;;;;;8.90;99.90;;;;;;4954813;28;20005;-66
2022/09/27 04:20:00;;;;;;;;;;;8.90;99.90;;;;;;4954149;28;20309;-67
2022/09/27 04:22:27;;;;;;;;;;;8.80;99.90;;;;;;4953157;28;20001;-67
2022/09/27 04:24:54;;;;;;;;;;;8.80;99.90;;;;;;4953639;28;19926;-67
2022/09/27 04:27:27;;;;;;;;;;;8.70;99.90;;;;;;4953512;28;19927;-67
2022/09/27 04:29:54;;;;;;;;;;;8.70;99.90;;;;;;4953082;28;19930;-66
2022/09/27 04:32:47;;;;;;;;;;;8.60;99.90;;;;;;4954026;28;19954;-66
2022/09/27 04:38:34;;;;;;;;;;;8.60;99.90;;;;;;4953191;28;19927;-67
2022/09/27 04:41:01;;;;;;;;;;;8.60;99.90;;;;;;4952972;28;19933;-66
2022/09/27 04:43:31;;;;;;;;;;;8.60;99.90;;;;;;4952364;28;19930;-66
2022/09/27 04:45:58;;;;;;;;;;;8.60;99.90;;;;;;4953041;28;19942;-67
2022/09/27 04:48:25;;;;;;;;;;;8.60;99.90;;;;;;4953013;28;19958;-66
2022/09/27 04:50:58;;;;;;;;;;;8.60;99.90;;;;;;4952535;28;19933;-66
2022/09/27 04:53:25;;;;;;;;;;;8.60;99.90;;;;;;4952536;28;19977;-67
2022/09/27 04:55:53;;;;;;;;;;;8.50;99.90;;;;;;4953005;28;19965;-66
2022/09/27 04:58:19;;;;;;;;;;;8.50;99.90;;;;;;4952690;28;19930;-67
2022/09/27 05:00:47;;;;;;;;;;;8.60;99.90;;;;;;4952078;28;20301;-67
2022/09/27 05:03:36;;;;;;;;;;;8.60;99.90;;;;;;4957050;28;19932;-67
2022/09/27 05:06:12;;;;;;;;;;;8.70;99.90;;;;;;4955757;28;20029;-66
2022/09/27 05:08:39;;;;;;;;;;;8.70;99.90;;;;;;4971978;28;19933;-66
2022/09/27 05:11:18;;;;;;;;;;;8.80;99.90;;;;;;4966757;28;19934;-67
2022/09/27 05:14:05;;;;;;;;;;;8.80;99.90;;;;;;4953304;28;20005;-65
2022/09/27 05:16:39;;;;;;;;;;;8.80;99.90;;;;;;4952717;28;19933;-67
2022/09/27 05:19:26;;;;;;;;;;;8.70;99.90;;;;;;4952941;28;19926;-67
2022/09/27 05:22:11;;;;;;;;;;;8.80;99.90;;;;;;4971744;28;19930;-67
2022/09/27 05:24:38;;;;;;;;;;;8.80;99.90;;;;;;4971359;28;19926;-66
2022/09/27 05:27:08;;;;;;;;;;;8.80;99.90;;;;;;4971582;28;19926;-65
2022/09/27 05:29:35;;;;;;;;;;;8.80;99.90;;;;;;4971536;28;19926;-66
2022/09/27 05:32:07;;;;;;;;;;;8.70;99.90;;;;;;4971547;28;19926;-66
2022/09/27 05:34:34;;;;;;;;;;;8.70;99.90;;;;;;4971499;28;19926;-65
2022/09/27 05:37:01;;;;;;;;;;;8.70;99.90;;;;;;4963509;28;20021;-66
2022/09/27 05:39:33;;;;;;;;;;;8.70;99.90;;;;;;4951977;28;19974;-66
2022/09/27 05:42:01;;;;;;;;;;;8.70;99.90;;;;;;4952043;28;19938;-66
2022/09/27 05:44:28;;;;;;;;;;;8.60;99.90;;;;;;4951837;28;19934;-66
2022/09/27 05:47:00;;;;;;;;;;;8.70;99.90;;;;;;4952151;28;20013;-67
2022/09/27 05:49:27;;;;;;;;;;;8.70;99.90;;;;;;4951732;28;19933;-67
2022/09/27 05:51:54;;;;;;;;;;;8.80;99.90;;;;;;4951844;28;19926;-67
2022/09/27 05:54:21;;;;;;;;;;;8.80;99.90;;;;;;4951883;28;19937;-65
2022/09/27 05:56:50;;;;;;;;;;;8.90;99.90;;;;;;4951837;28;19933;-67
2022/09/27 05:59:40;;;;;;;;;;;8.90;99.90;;;;;;4949745;28;19937;-67
2022/09/27 06:02:21;;;;;;;;;;;8.90;99.90;;;;;;4949143;28;20283;-66
2022/09/27 06:04:51;;;;;;;;;;;8.90;99.90;;;;;;4953636;28;20416;-66
2022/09/27 06:07:38;;;;;;;;;;;8.90;99.90;;;;;;4952749;29;20024;-66
2022/09/27 06:10:08;;;;;;;;;;;8.90;99.90;;;;;;4951425;28;19926;-66
2022/09/27 06:12:37;;;;;;;;;;;8.90;99.90;;;;;;4970203;28;20365;-66
2022/09/27 06:15:08;;;;;;;;;;;8.90;99.90;;;;;;4970998;28;19981;-67
2022/09/27 06:17:39;;;;;;;;;;;8.90;99.90;;;;;;4958712;28;19937;-67
2022/09/27 06:20:18;;;;;;;;;;;8.90;99.90;;;;;;4950936;28;19927;-67
2022/09/27 06:22:46;;;;;;;;;;;8.90;99.90;;;;;;4951053;28;19948;-65
2022/09/27 06:25:13;;;;;;;;;;;9.00;99.90;;;;;;4951275;28;19926;-68
2022/09/27 06:28:01;;;;;;;;;;;8.90;99.90;;;;;;4951504;28;20305;-66
2022/09/27 06:30:29;;;;;;;;;;;9.00;99.90;;;;;;4948246;28;20028;-67
2022/09/27 06:32:57;;;;;;;;;;;9.00;99.90;;;;;;4951308;28;19926;-67
2022/09/27 06:35:30;;;;;;;;;;;9.00;99.90;;;;;;4951611;28;19926;-67
2022/09/27 06:37:57;;;;;;;;;;;9.00;99.90;;;;;;4951950;28;19961;-67
2022/09/27 06:40:26;;;;;;;;;;;9.10;99.90;;;;;;4951243;28;19935;-68
2022/09/27 06:43:15;;;;;;;;;;;9.00;99.90;;;;;;4952195;28;19926;-67
2022/09/27 06:45:54;;;;;;;;;;;9.10;99.90;;;;;;4953004;28;19926;-67
2022/09/27 06:48:41;;;;;;;;;;;9.20;99.90;;;;;;4941575;28;20024;-67
2022/09/27 06:51:15;;;;;;;;;;;9.20;99.90;;;;;;4951141;28;19926;-67
2022/09/27 06:53:43;;;;;;;;;;;9.30;99.90;;;;;;4951117;28;19931;-67
2022/09/27 06:56:10;;;;;;;;;;;9.20;99.90;;;;;;4951468;28;19926;-67
2022/09/27 07:01:42;;;;;;;;;;;9.30;99.90;;;;;;4951529;28;19926;-66
2022/09/27 07:04:28;;;;;;;;;;;9.20;99.90;;;;;;4952637;28;19985;-65
2022/09/27 07:07:05;;;;;;;;;;;9.20;99.90;;;;;;4955016;28;20017;-67
2022/09/27 07:09:37;;;;;;;;;;;9.30;99.90;;;;;;4954656;28;19933;-67
2022/09/27 07:12:05;;;;;;;;;;;9.40;99.90;;;;;;4969502;28;19926;-67
2022/09/27 07:14:34;;;;;;;;;;;9.50;99.90;;;;;;4973911;28;19957;-67
2022/09/27 07:17:02;;;;;;;;;;;9.60;99.90;;;;;;4974272;28;20400;-67
2022/09/27 07:19:34;;;;;;;;;;;9.70;99.90;;;;;;4973544;28;19941;-68
2022/09/27 07:22:01;;;;;;;;;;;9.60;99.90;;;;;;4973710;28;19937;-66
2022/09/27 07:24:29;;;;;;;;;;;9.50;99.90;;;;;;4973394;28;19949;-67
2022/09/27 07:26:56;;;;;;;;;;;9.50;99.90;;;;;;4973706;28;20029;-68
2022/09/27 07:29:23;;;;;;;;;;;9.60;99.90;;;;;;4973432;28;19926;-67
2022/09/27 07:31:54;;;;;;;;;;;9.70;99.90;;;;;;4973504;28;19930;-68
2022/09/27 07:34:20;;;;;;;;;;;9.70;99.90;;;;;;4973254;28;19933;-67
2022/09/27 07:36:47;;;;;;;;;;;9.70;99.90;;;;;;4973614;28;19933;-67
2022/09/27 07:39:14;;;;;;;;;;;9.80;99.90;;;;;;4973199;28;19927;-68
2022/09/27 07:41:42;;;;;;;;;;;9.80;99.90;;;;;;4973372;28;19930;-67
2022/09/27 07:44:11;;;;;;;;;;;9.90;99.90;;;;;;4972938;28;19957;-69
2022/09/27 07:46:51;;;;;;;;;;;10.00;99.90;;;;;;4973488;28;19931;-68
2022/09/27 07:49:26;;;;;;;;;;;10.10;99.90;;;;;;4973087;28;19949;-67
2022/09/27 07:52:08;;;;;;;;;;;10.10;99.90;;;;;;4973003;28;19933;-67
2022/09/27 07:54:54;;;;;;;;;;;10.00;99.90;;;;;;4972996;28;19926;-67
2022/09/27 07:57:29;;;;;;;;;;;10.10;99.90;;;;;;4973370;28;19973;-67
2022/09/27 07:59:58;;;;;;;;;;;10.10;99.90;;;;;;4972844;28;19926;-68
2022/09/27 08:02:25;;;;;;;;;;;10.20;99.90;;;;;;4972642;28;20381;-66
2022/09/27 08:04:54;;;;;;;;;;;10.10;99.90;;;;;;4973132;28;20312;-66
2022/09/27 08:07:21;;;;;;;;;;;10.40;99.90;;;;;;4973210;28;19930;-67
2022/09/27 08:09:53;;;;;;;;;;;10.40;99.90;;;;;;4972671;28;19926;-65
2022/09/27 08:12:21;;;;;;;;;;;10.30;99.90;;;;;;4955339;28;19987;-68
2022/09/27 08:14:48;;;;;;;;;;;10.30;99.90;;;;;;4952750;28;19926;-66
2022/09/27 08:17:16;;;;;;;;;;;10.30;99.90;;;;;;4954060;28;19926;-67
2022/09/27 08:20:05;;;;;;;;;;;10.40;99.90;;;;;;4955288;29;19938;-68
2022/09/27 08:23:03;;;;;;;;;;;10.60;99.90;;;;;;4953099;28;19927;-69
2022/09/27 08:25:39;;;;;;;;;;;10.80;99.90;;;;;;4953775;28;19938;-69
2022/09/27 08:28:30;;;;;;;;;;;10.90;99.90;;;;;;4951681;28;19933;-67
2022/09/27 08:31:03;;;;;;;;;;;10.90;99.90;;;;;;4953298;28;19927;-67
2022/09/27 08:33:30;;;;;;;;;;;10.90;99.90;;;;;;4952568;28;20290;-68
2022/09/27 08:35:58;;;;;;;;;;;10.90;99.90;;;;;;4953474;28;19934;-67
2022/09/27 08:38:25;;;;;;;;;;;11.10;99.90;;;;;;4953165;28;19933;-67
2022/09/27 08:40:54;;;;;;;;;;;11.20;99.90;;;;;;4951359;28;19926;-68
2022/09/27 08:43:25;;;;;;;;;;;11.20;99.90;;;;;;4952526;28;19933;-67
2022/09/27 08:45:58;;;;;;;;;;;11.20;99.90;;;;;;4953060;28;19927;-68
2022/09/27 08:48:26;;;;;;;;;;;11.30;99.90;;;;;;4953453;28;19926;-67
2022/09/27 08:50:53;;;;;;;;;;;11.10;99.90;;;;;;4952572;28;19926;-66
2022/09/27 08:53:26;;;;;;;;;;;11.00;99.90;;;;;;4952167;28;19926;-67
2022/09/27 08:55:55;;;;;;;;;;;11.00;99.90;;;;;;4952580;28;20423;-67
2022/09/27 08:58:26;;;;;;;;;;;10.90;99.90;;;;;;4951761;28;19981;-67
2022/09/27 09:00:55;;;;;;;;;;;10.70;99.90;;;;;;4952806;28;19930;-67
2022/09/27 09:03:27;;;;;;;;;;;10.80;99.90;;;;;;4952495;28;20405;-68
2022/09/27 09:06:04;;;;;;;;;;;10.90;99.90;;;;;;4952734;28;19931;-69
2022/09/27 09:08:35;;;;;;;;;;;11.00;99.90;;;;;;4952768;28;19926;-67
2022/09/27 09:14:03;;;;;;;;;;;10.90;99.90;;;;;;4971625;28;20053;-67
2022/09/27 09:16:35;;;;;;;;;;;11.10;99.90;;;;;;4951029;28;20301;-68
2022/09/27 09:19:09;;;;;;;;;;;11.40;99.90;;;;;;4951727;29;19931;-67
2022/09/27 09:21:59;;;;;;;;;;;11.70;99.90;;;;;;4950504;29;19969;-68
2022/09/27 09:24:36;;;;;;;;;;;12.00;99.90;;;;;;4952023;28;19933;-67
2022/09/27 09:27:08;;;;;;;;;;;12.40;99.90;;;;;;4950726;29;19930;-68
2022/09/27 09:29:42;;;;;;;;;;;12.30;99.90;;;;;;4947985;28;19926;-68
2022/09/27 09:32:17;;;;;;;;;;;12.30;99.90;;;;;;4950792;28;20302;-67
2022/09/27 09:34:47;;;;;;;;;;;12.50;99.90;;;;;;4951654;28;19931;-67
2022/09/27 09:37:16;;;;;;;;;;;12.30;99.90;;;;;;4952127;28;20279;-67
2022/09/27 09:39:47;;;;;;;;;;;12.00;99.90;;;;;;4951615;28;19937;-67
2022/09/27 09:42:18;;;;;;;;;;;12.10;99.90;;;;;;4951810;28;19930;-67
2022/09/27 09:44:50;;;;;;;;;;;12.10;99.90;;;;;;4952161;28;19933;-69
2022/09/27 09:47:36;;;;;;;;;;;12.00;99.90;;;;;;4949322;29;19926;-68
2022/09/27 09:50:06;;;;;;;;;;;12.00;99.90;;;;;;4951535;29;19938;-68
2022/09/27 09:52:39;;;;;;;;;;;12.10;99.90;;;;;;4951702;28;19931;-68
2022/09/27 09:55:13;;;;;;;;;;;11.90;99.90;;;;;;4951963;29;19926;-67
2022/09/27 09:57:43;;;;;;;;;;;11.70;99.90;;;;;;4951405;29;20013;-68
2022/09/27 10:00:18;;;;;;;;;;;11.50;99.90;;;;;;4951107;29;19958;-68
2022/09/27 10:02:49;;;;;;;;;;;11.40;99.90;;;;;;4951341;28;19965;-67
2022/09/27 10:05:22;;;;;;;;;;;11.30;99.90;;;;;;4948708;29;20005;-68
2022/09/27 10:07:57;;;;;;;;;;;11.30;99.90;;;;;;4951789;28;19931;-67
2022/09/27 10:10:26;;;;;;;;;;;11.30;99.90;;;;;;4953270;28;19927;-67
2022/09/27 10:12:53;;;;;;;;;;;11.20;99.90;;;;;;4972103;28;19926;-67
2022/09/27 10:15:24;;;;;;;;;;;11.00;99.90;;;;;;4970865;28;20416;-67
2022/09/27 10:17:52;;;;;;;;;;;10.70;99.90;;;;;;4970990;28;20364;-70
2022/09/27 10:20:26;;;;;;;;;;;10.40;99.90;;;;;;4971929;28;19926;-68
2022/09/27 10:22:55;;;;;;;;;;;10.40;99.90;;;;;;4970555;28;20316;-68
2022/09/27 10:25:47;;;;;;;;;;;10.70;99.90;;;;;;4970743;28;20010;-67
2022/09/27 10:28:35;;;;;;;;;;;10.80;99.90;;;;;;4971010;28;19991;-67
2022/09/27 10:31:02;;;;;;;;;;;11.10;99.90;;;;;;4971050;28;20305;-67
2022/09/27 10:33:34;;;;;;;;;;;11.60;99.90;;;;;;4971525;28;20021;-67
2022/09/27 10:36:21;;;;;;;;;;;12.20;99.90;;;;;;4971708;28;19933;-68
2022/09/27 10:38:51;;;;;;;;;;;12.60;99.90;;;;;;4971589;28;19930;-69
2022/09/27 10:41:31;;;;;;;;;;;12.20;99.90;;;;;;4974560;28;19937;-67
2022/09/27 10:44:19;;;;;;;;;;;11.80;99.90;;;;;;4975406;28;19926;-67
2022/09/27 10:46:52;;;;;;;;;;;11.80;99.90;;;;;;4975427;28;19926;-67
2022/09/27 10:49:39;;;;;;;;;;;11.80;99.90;;;;;;4975022;28;19933;-67
2022/09/27 10:52:16;;;;;;;;;;;11.90;99.90;;;;;;4975045;28;19937;-65
2022/09/27 10:54:52;;;;;;;;;;;11.70;99.90;;;;;;4968742;28;20029;-67
2022/09/27 10:57:21;;;;;;;;;;;11.90;99.90;;;;;;4955224;28;19926;-67
2022/09/27 10:59:52;;;;;;;;;;;12.10;99.90;;;;;;4954766;28;19926;-67
2022/09/27 11:02:20;;;;;;;;;;;12.10;99.90;;;;;;4955285;28;19927;-67
2022/09/27 11:05:10;;;;;;;;;;;12.50;99.90;;;;;;4955594;28;19933;-68
2022/09/27 11:07:37;;;;;;;;;;;12.60;99.90;;;;;;4955894;28;19926;-67
2022/09/27 11:10:22;;;;;;;;;;;13.00;99.90;;;;;;4955678;28;19930;-67
2022/09/27 11:13:05;;;;;;;;;;;13.10;99.90;;;;;;4955182;28;20017;-67
2022/09/27 11:15:37;;;;;;;;;;;13.50;99.90;;;;;;4955867;28;20390;-67
2022/09/27 11:18:09;;;;;;;;;;;13.20;99.90;;;;;;4954674;28;20011;-67
2022/09/27 11:20:38;;;;;;;;;;;12.90;99.90;;;;;;4955577;28;19930;-67
2022/09/27 11:23:20;;;;;;;;;;;12.70;99.90;;;;;;4955160;28;19931;-67
2022/09/27 11:25:54;;;;;;;;;;;13.20;99.90;;;;;;4953887;28;19931;-68
2022/09/27 11:28:28;;;;;;;;;;;12.70;99.90;;;;;;4955582;28;20017;-67
2022/09/27 11:31:02;;;;;;;;;;;12.90;99.90;;;;;;4954657;28;19926;-67
2022/09/27 11:34:12;;;;;;;;;;;13.80;99.90;;;;;;4955233;28;19926;-67
2022/09/27 11:36:47;;;;;;;;;;;12.80;99.90;;;;;;4899842;29;19927;-68
2022/09/27 11:39:19;;;;;;;;;;;12.30;99.90;;;;;;4939248;29;20307;-67
2022/09/27 11:41:54;;;;;;;;;;;12.20;99.90;;;;;;4936022;28;19927;-67
2022/09/27 11:44:37;;;;;;;;;;;12.50;99.90;;;;;;4935776;29;20429;-67
2022/09/27 11:47:09;;;;;;;;;;;12.20;99.90;;;;;;4935901;28;20033;-67
2022/09/27 11:49:44;;;;;;;;;;;11.90;99.90;;;;;;4935418;29;19934;-66
2022/09/27 11:52:20;;;;;;;;;;;11.80;99.90;;;;;;4935484;29;19927;-67
2022/09/27 11:54:55;;;;;;;;;;;11.80;99.90;;;;;;4935944;28;19934;-67
2022/09/27 11:57:25;;;;;;;;;;;11.60;99.90;;;;;;4935586;28;19927;-66
2022/09/27 12:00:05;;;;;;;;;;;11.20;99.90;;;;;;4935196;28;20346;-66
2022/09/27 12:02:54;;;;;;;;;;;11.50;99.90;;;;;;4936436;29;19927;-66
2022/09/27 12:05:27;;;;;;;;;;;11.60;99.90;;;;;;4935896;29;20392;-67
2022/09/27 12:08:07;;;;;;;;;;;11.60;99.90;;;;;;4935598;29;19978;-68
2022/09/27 12:10:35;;;;;;;;;;;11.50;99.90;;;;;;4953910;28;19930;-67
2022/09/27 12:13:03;;;;;;;;;;;11.40;99.90;;;;;;4954477;28;19934;-67
2022/09/27 12:15:34;;;;;;;;;;;11.60;99.90;;;;;;4954114;28;19977;-67
2022/09/27 12:18:09;;;;;;;;;;;11.80;99.90;;;;;;4953294;28;19947;-69
2022/09/27 12:20:38;;;;;;;;;;;12.00;99.90;;;;;;4952768;28;20037;-67
2022/09/27 12:23:07;;;;;;;;;;;11.70;99.90;;;;;;4953013;28;19930;-68
2022/09/27 12:25:55;;;;;;;;;;;11.70;99.90;;;;;;4953752;28;19926;-67
2022/09/27 12:28:32;;;;;;;;;;;12.00;99.90;;;;;;4953519;28;20388;-73
2022/09/27 12:31:07;;;;;;;;;;;12.60;99.90;;;;;;4952981;28;19931;-66
2022/09/27 12:33:38;;;;;;;;;;;12.50;99.90;;;;;;4952891;28;19946;-68
2022/09/27 12:36:06;;;;;;;;;;;12.30;99.90;;;;;;4953752;28;19937;-67
2022/09/27 12:38:39;;;;;;;;;;;11.90;99.90;;;;;;4952753;28;19926;-67
2022/09/27 12:41:07;;;;;;;;;;;11.70;99.90;;;;;;4952804;28;19990;-67
2022/09/27 12:43:47;;;;;;;;;;;11.40;99.90;;;;;;4953062;28;19934;-67
2022/09/27 12:46:25;;;;;;;;;;;10.80;99.90;;;;;;4953142;28;19930;-67
2022/09/27 12:48:59;;;;;;;;;;;10.50;99.90;;;;;;4953011;28;19926;-67
2022/09/27 12:51:30;;;;;;;;;;;10.30;99.90;;;;;;4953026;28;19930;-69
2022/09/27 12:54:13;;;;;;;;;;;10.20;99.90;;;;;;4952710;28;19926;-68
2022/09/27 12:56:46;;;;;;;;;;;10.20;99.90;;;;;;4953035;28;19927;-69
2022/09/27 12:59:21;;;;;;;;;;;10.50;99.90;;;;;;4952671;28;20030;-69
2022/09/27 13:01:59;;;;;;;;;;;10.90;99.90;;;;;;4952637;28;20353;-68
2022/09/27 13:04:32;;;;;;;;;;;11.40;99.90;;;;;;4951983;28;20409;-71
2022/09/27 13:07:16;;;;;;;;;;;11.70;99.90;;;;;;4952766;28;19934;-67
2022/09/27 13:10:11;;;;;;;;;;;11.90;99.90;;;;;;4953145;28;20305;-69
2022/09/27 13:12:40;;;;;;;;;;;11.70;99.90;;;;;;4927228;29;19927;-70
2022/09/27 13:15:13;;;;;;;;;;;11.50;99.90;;;;;;4933514;28;19927;-66
2022/09/27 13:17:52;;;;;;;;;;;11.70;99.90;;;;;;4933792;28;20053;-68
2022/09/27 13:20:47;;;;;;;;;;;11.70;99.90;;;;;;4949331;28;19930;-69
2022/09/27 13:23:59;;;;;;;;;;;11.60;99.90;;;;;;4933289;28;19946;-68
2022/09/27 13:26:47;;;;;;;;;;;11.80;99.90;;;;;;4933692;28;19927;-68
2022/09/27 13:29:22;;;;;;;;;;;11.90;99.90;;;;;;4933607;28;19929;-68
2022/09/27 13:32:11;;;;;;;;;;;12.00;99.90;;;;;;4949478;28;20311;-68
2022/09/27 13:35:10;;;;;;;;;;;12.10;99.90;;;;;;4933476;28;19926;-69
2022/09/27 13:37:44;;;;;;;;;;;12.10;99.90;;;;;;4933447;28;19926;-69
2022/09/27 13:40:20;;;;;;;;;;;12.20;99.90;;;;;;4932960;28;19931;-69
2022/09/27 13:43:20;;;;;;;;;;;12.30;99.90;;;;;;4958185;28;19926;-67
2022/09/27 13:45:58;;;;;;;;;;;12.80;99.90;;;;;;4957959;28;20006;-68
2022/09/27 13:48:29;;;;;;;;;;;13.30;99.90;;;;;;4952000;28;20029;-70
2022/09/27 13:50:59;;;;;;;;;;;14.30;99.90;;;;;;4951768;28;19938;-72
2022/09/27 13:53:29;;;;;;;;;;;16.60;99.90;;;;;;4951441;28;19934;-71
2022/09/27 13:55:56;;;;;;;;;;;17.40;99.90;;;;;;4952342;28;19930;-71
2022/09/27 13:58:38;;;;;;;;;;;17.20;99.90;;;;;;4952097;28;19927;-71
2022/09/27 14:01:15;;;;;;;;;;;16.70;99.90;;;;;;4951750;28;19933;-69
2022/09/27 14:03:44;;;;;;;;;;;17.70;99.90;;;;;;4951453;28;19926;-68
2022/09/27 14:06:17;;;;;;;;;;;17.10;99.90;;;;;;4952067;28;20386;-68
2022/09/27 14:08:46;;;;;;;;;;;15.70;99.90;;;;;;4952207;28;20345;-68
2022/09/27 14:11:14;;;;;;;;;;;14.60;99.90;;;;;;4959941;28;19933;-70
2022/09/27 14:13:43;;;;;;;;;;;13.90;99.90;;;;;;4970736;28;20320;-69
2022/09/27 14:16:14;;;;;;;;;;;13.30;99.90;;;;;;4975314;28;19926;-69
2022/09/27 14:18:43;;;;;;;;;;;13.20;99.90;;;;;;4974952;28;19926;-69
2022/09/27 14:21:14;;;;;;;;;;;12.80;99.90;;;;;;4974849;28;20002;-69
2022/09/27 14:24:23;;;;;;;;;;;12.70;99.90;;;;;;4972120;28;19957;-69
2022/09/27 14:26:50;;;;;;;;;;;12.40;99.90;;;;;;4975051;28;19932;-70
2022/09/27 14:29:17;;;;;;;;;;;12.00;99.90;;;;;;4974658;28;20430;-69
2022/09/27 14:31:47;;;;;;;;;;;11.80;99.90;;;;;;4974722;28;19933;-68
2022/09/27 14:34:18;;;;;;;;;;;11.60;99.90;;;;;;4974429;28;19926;-69
2022/09/27 14:39:42;;;;;;;;;;;10.70;99.90;;;;;;4994510;23;20294;-70
2022/09/27 14:42:31;;;;;;;;;;;10.20;99.90;;;;;;4951809;28;19933;-70
2022/09/27 14:45:01;;;;;;;;;;;10.00;99.90;;;;;;4954657;28;20017;-69
2022/09/27 14:47:28;;;;;;;;;;;10.00;99.90;;;;;;4955541;28;20385;-68
2022/09/27 14:49:56;;;;;;;;;;;10.00;99.90;;;;;;4943199;28;19933;-68
2022/09/27 14:52:26;;;;;;;;;;;10.00;99.90;;;;;;4935930;28;20472;-69
2022/09/27 14:54:58;;;;;;;;;;;10.20;99.90;;;;;;4936233;29;19926;-68
2022/09/27 14:57:27;;;;;;;;;;;10.30;99.90;;;;;;4935877;28;20414;-68
2022/09/27 14:59:56;;;;;;;;;;;10.50;99.90;;;;;;4932335;29;19931;-68
2022/09/27 15:02:24;;;;;;;;;;;10.60;99.90;;;;;;4928348;29;19934;-68
2022/09/27 15:04:51;;;;;;;;;;;10.80;99.90;;;;;;4950237;28;19933;-68
2022/09/27 15:07:18;;;;;;;;;;;10.90;99.90;;;;;;4935874;28;19926;-68
2022/09/27 15:09:45;;;;;;;;;;;11.20;99.90;;;;;;4935461;29;20022;-69
2022/09/27 15:12:17;;;;;;;;;;;11.60;99.90;;;;;;4951421;29;20009;-67
2022/09/27 15:14:45;;;;;;;;;;;12.30;99.90;;;;;;4951124;29;19927;-68
2022/09/27 15:17:17;;;;;;;;;;;13.30;99.90;;;;;;4935432;29;20318;-68
2022/09/27 15:19:56;;;;;;;;;;;14.30;99.90;;;;;;4935085;29;20326;-68
2022/09/27 15:22:23;;;;;;;;;;;14.90;99.90;;;;;;4935085;29;19935;-68
2022/09/27 15:24:50;;;;;;;;;;;15.10;99.90;;;;;;4935597;29;19927;-69
2022/09/27 15:27:20;;;;;;;;;;;15.70;99.90;;;;;;4935107;29;19930;-68
2022/09/27 15:29:51;;;;;;;;;;;16.30;99.90;;;;;;4935976;29;19927;-68
2022/09/27 15:32:19;;;;;;;;;;;16.70;99.90;;;;;;4934798;29;19926;-68
2022/09/27 15:34:46;;;;;;;;;;;15.80;99.90;;;;;;4934979;29;19982;-68
2022/09/27 15:37:24;;;;;;;;;;;14.40;99.90;;;;;;4935311;29;19927;-69
2022/09/27 15:39:51;;;;;;;;;;;13.30;99.90;;;;;;4934667;29;19934;-68
2022/09/27 15:42:20;;;;;;;;;;;12.70;99.90;;;;;;4934680;29;19931;-70
2022/09/27 15:44:48;;;;;;;;;;;12.50;99.90;;;;;;4935000;29;20394;-69
2022/09/27 15:47:33;;;;;;;;;;;12.30;99.90;;;;;;4934993;29;19927;-70
2022/09/27 15:50:21;;;;;;;;;;;12.10;99.90;;;;;;4934717;29;19927;-69
2022/09/27 15:52:51;;;;;;;;;;;12.00;99.90;;;;;;4934618;29;19955;-68
2022/09/27 15:55:18;;;;;;;;;;;11.70;99.90;;;;;;4934975;29;20342;-69
2022/09/27 15:57:47;;;;;;;;;;;11.50;99.90;;;;;;4934722;29;19942;-69
2022/09/27 16:00:15;;;;;;;;;;;11.30;99.90;;;;;;4934342;29;19975;-69
2022/09/27 16:02:43;;;;;;;;;;;11.00;99.90;;;;;;4934621;29;19933;-67
2022/09/27 16:05:10;;;;;;;;;;;10.90;99.90;;;;;;4934554;29;19927;-68
2022/09/27 16:07:37;;;;;;;;;;;10.70;99.90;;;;;;4934753;29;20358;-69
2022/09/27 16:10:10;;;;;;;;;;;10.70;99.90;;;;;;4934545;29;20382;-68
2022/09/27 16:12:36;;;;;;;;;;;10.50;99.90;;;;;;4931271;29;19927;-69
2022/09/27 16:15:03;;;;;;;;;;;10.50;99.90;;;;;;4915574;29;20375;-68
2022/09/27 16:17:30;;;;;;;;;;;10.50;99.90;;;;;;4915551;29;20413;-68
2022/09/27 16:19:57;;;;;;;;;;;10.50;99.90;;;;;;4915305;29;19927;-69
2022/09/27 16:22:24;;;;;;;;;;;10.50;99.90;;;;;;4915453;29;19927;-69
2022/09/27 16:24:52;;;;;;;;;;;10.60;99.90;;;;;;4921829;29;19933;-69
2022/09/27 16:27:23;;;;;;;;;;;10.60;99.90;;;;;;4934577;29;19926;-70
2022/09/27 16:29:50;;;;;;;;;;;10.60;99.90;;;;;;4934032;28;19926;-68
2022/09/27 16:32:17;;;;;;;;;;;10.60;99.90;;;;;;4934349;28;19935;-69
2022/09/27 16:34:44;;;;;;;;;;;10.60;99.90;;;;;;4934625;29;19950;-68
2022/09/27 16:37:11;;;;;;;;;;;10.60;99.90;;;;;;4934193;29;19927;-68
2022/09/27 16:39:38;;;;;;;;;;;10.50;99.90;;;;;;4933276;29;19927;-68
2022/09/27 16:42:06;;;;;;;;;;;10.40;99.90;;;;;;4934117;28;19930;-68
2022/09/27 16:44:35;;;;;;;;;;;10.30;99.90;;;;;;4933593;29;20415;-68
2022/09/27 16:47:01;;;;;;;;;;;10.30;99.90;;;;;;4934031;29;19931;-68
2022/09/27 16:52:14;;;;;;;;;;;10.20;99.90;;;;;;4933784;29;19923;-67
2022/09/27 16:54:41;;;;;;;;;;;10.20;99.90;;;;;;4933895;28;19993;-68
2022/09/27 16:57:08;;;;;;;;;;;10.20;99.90;;;;;;4933586;29;19927;-68
2022/09/27 16:59:37;;;;;;;;;;;10.20;99.90;;;;;;4949508;28;19931;-69
2022/09/27 17:02:04;;;;;;;;;;;10.20;99.90;;;;;;4933908;29;19955;-68
2022/09/27 17:04:31;;;;;;;;;;;10.20;99.90;;;;;;4933264;29;19927;-69
2022/09/27 17:06:58;;;;;;;;;;;10.20;99.90;;;;;;4933657;29;19927;-68
2022/09/27 17:09:25;;;;;;;;;;;10.20;99.90;;;;;;4933074;28;19926;-67
2022/09/27 17:11:52;;;;;;;;;;;10.20;99.90;;;;;;4933281;28;19950;-69
2022/09/27 17:14:19;;;;;;;;;;;10.20;99.90;;;;;;4933280;29;19950;-68
2022/09/27 17:16:48;;;;;;;;;;;10.20;99.90;;;;;;4933641;29;19926;-68
2022/09/27 17:19:15;;;;;;;;;;;10.20;99.90;;;;;;4933197;29;19931;-68
2022/09/27 17:21:42;;;;;;;;;;;10.20;99.90;;;;;;4932694;29;19931;-69
2022/09/27 17:24:09;;;;;;;;;;;10.20;99.90;;;;;;4932879;29;19978;-68
2022/09/27 17:26:36;;;;;;;;;;;10.20;99.90;;;;;;4932998;29;19927;-69
2022/09/27 17:29:03;;;;;;;;;;;10.20;99.90;;;;;;4933003;29;19991;-69
2022/09/27 17:31:32;;;;;;;;;;;10.20;99.90;;;;;;4933210;29;19927;-68
2022/09/27 17:34:01;;;;;;;;;;;10.20;99.90;;;;;;4932722;29;20413;-69
2022/09/27 17:36:30;;;;;;;;;;;10.20;99.90;;;;;;4933172;29;20433;-68
2022/09/27 17:38:57;;;;;;;;;;;10.20;99.90;;;;;;4932480;29;20287;-69
2022/09/27 17:41:24;;;;;;;;;;;10.10;99.90;;;;;;4933228;29;19927;-68
2022/09/27 17:43:53;;;;;;;;;;;10.10;99.90;;;;;;4932682;29;19931;-69
2022/09/27 17:46:21;;;;;;;;;;;10.10;99.90;;;;;;4932914;29;19974;-68
2022/09/27 17:51:34;;;;;;;;;;;10.10;99.90;;;;;;4933066;29;19977;-68
2022/09/27 17:54:01;;;;;;;;;;;10.10;99.90;;;;;;4932893;29;19931;-69
2022/09/27 17:56:28;;;;;;;;;;;10.00;99.90;;;;;;4932891;29;19931;-69
2022/09/27 17:58:56;;;;;;;;;;;10.00;99.90;;;;;;4932629;29;19934;-68
2022/09/27 18:01:25;;;;;;;;;;;9.90;99.90;;;;;;4932476;29;20192;-68
2022/09/27 18:03:53;;;;;;;;;;;9.80;99.90;;;;;;4932531;29;19938;-69
2022/09/27 18:06:19;;;;;;;;;;;9.80;99.90;;;;;;4933030;29;19927;-67
2022/09/27 18:08:48;;;;;;;;;;;9.70;99.90;;;;;;4932672;29;19935;-67
2022/09/27 18:11:15;;;;;;;;;;;9.70;99.90;;;;;;4932774;29;19927;-68